METAR AND TAF INFORMATION
METAR FOR RJTF
ADDS - METARS form results

(0655 UTC 21 October 2020)
Data provider http://aviationweather.gov/metar/data/
 
METAR text: RJTF 210600Z 04008G19KT 350V090 CAVOK 20/08 Q1023
Conditions at: RJTF (CHOFU AIRPORT , JP) observed 0600 UTC 21 October 2020
Temperature: 20.0°C (68°F)
Dewpoint: 8.0°C (46°F) [RH = 46%]
Pressure (altimeter): 30.21 inches Hg (1023.0 mb)
Winds: from the NE (40 degrees) at 9 MPH (8 knots; 4.1 m/s)
gusting to 22 MPH (19 knots; 9.8 m/s)
Visibility: 6 or more miles (10+ km)
Ceiling: ceiling and visibility are OK
Clouds: unknown
Weather: no significant weather observed at this time

 AIRPORT MAP

 RUNWAY INFORMATION

 AIRPORT FREQUENCIES

 AIRPORT NEAR NAVIGATION AIDS



Powered by Virtual Airlines Manager [v2.6.2]